createdAt,value
2023-03-29T00:00:30.674Z,1.93
2023-03-29T00:02:57.964Z,2.03
2023-03-29T00:05:25.337Z,2.27
2023-03-29T00:07:52.803Z,2.10
2023-03-29T00:10:22.239Z,1.87
2023-03-29T00:12:50.468Z,1.80
2023-03-29T00:15:17.782Z,1.80
2023-03-29T00:17:45.330Z,2.00
2023-03-29T00:20:12.805Z,2.00
2023-03-29T00:22:41.645Z,2.10
2023-03-29T00:25:11.431Z,2.40
2023-03-29T00:27:39.714Z,3.80
2023-03-29T00:30:09.530Z,3.80
2023-03-29T00:32:37.922Z,4.03
2023-03-29T00:35:05.658Z,2.40
2023-03-29T00:37:33.578Z,3.53
2023-03-29T00:40:01.144Z,3.57
2023-03-29T00:42:28.580Z,3.70
2023-03-29T00:45:09.836Z,3.60
2023-03-29T00:47:46.763Z,2.87
2023-03-29T00:50:18.888Z,3.00
2023-03-29T00:52:55.280Z,2.70
2023-03-29T00:55:27.801Z,2.37
2023-03-29T00:57:58.718Z,2.00
2023-03-29T01:00:37.172Z,2.13
2023-03-29T01:03:12.689Z,1.80
2023-03-29T01:05:47.811Z,1.80
2023-03-29T01:08:24.241Z,1.37
2023-03-29T01:11:19.720Z,1.50
2023-03-29T01:14:27.219Z,1.40
2023-03-29T01:16:54.613Z,1.47
2023-03-29T01:19:28.657Z,1.37
2023-03-29T01:22:07.613Z,1.40
2023-03-29T01:24:34.718Z,1.63
2023-03-29T01:27:29.369Z,1.50
2023-03-29T01:30:05.350Z,1.30
2023-03-29T01:32:50.266Z,1.27
2023-03-29T01:35:41.541Z,1.43
2023-03-29T01:38:45.932Z,1.10
2023-03-29T01:41:13.319Z,1.10
2023-03-29T01:44:03.405Z,1.20
2023-03-29T01:47:00.738Z,1.10
2023-03-29T01:49:42.433Z,1.10
2023-03-29T01:52:25.326Z,1.17
2023-03-29T01:55:06.274Z,1.20
2023-03-29T01:57:35.859Z,1.20
2023-03-29T02:00:04.760Z,1.13
2023-03-29T02:02:33.173Z,1.30
2023-03-29T02:05:01.298Z,1.20
2023-03-29T02:07:31.130Z,1.03
2023-03-29T02:09:59.417Z,1.20
2023-03-29T02:12:26.767Z,1.10
2023-03-29T02:14:53.889Z,1.10
2023-03-29T02:17:25.978Z,1.20
2023-03-29T02:20:01.786Z,1.10
2023-03-29T02:22:40.416Z,1.10
2023-03-29T02:25:08.734Z,1.00
2023-03-29T02:27:36.464Z,1.40
2023-03-29T02:30:06.825Z,1.03
2023-03-29T02:32:50.017Z,1.10
2023-03-29T02:35:58.671Z,1.13
2023-03-29T02:38:28.176Z,1.17
2023-03-29T02:40:58.475Z,1.07
2023-03-29T02:43:29.034Z,1.10
2023-03-29T02:45:56.824Z,1.20
2023-03-29T02:48:28.369Z,1.40
2023-03-29T02:51:03.585Z,1.20
2023-03-29T02:53:45.108Z,1.10
2023-03-29T02:56:13.504Z,1.20
2023-03-29T02:58:41.078Z,1.23
2023-03-29T03:01:09.239Z,1.10
2023-03-29T03:03:37.011Z,1.27
2023-03-29T03:06:05.066Z,0.93
2023-03-29T03:08:32.335Z,1.20
2023-03-29T03:10:59.665Z,1.37
2023-03-29T03:13:27.186Z,1.20
2023-03-29T03:15:54.457Z,1.00
2023-03-29T03:18:21.737Z,1.30
2023-03-29T03:20:59.989Z,0.90
2023-03-29T03:23:27.628Z,1.20
2023-03-29T03:25:55.075Z,1.00
2023-03-29T03:28:23.871Z,1.13
2023-03-29T03:30:51.403Z,1.40
2023-03-29T03:33:18.812Z,1.17
2023-03-29T03:35:46.370Z,1.40
2023-03-29T03:38:13.675Z,1.20
2023-03-29T03:40:40.958Z,1.10
2023-03-29T03:43:08.229Z,1.27
2023-03-29T03:45:35.484Z,1.33
2023-03-29T03:48:02.867Z,1.20
2023-03-29T03:50:30.089Z,1.20
2023-03-29T03:52:57.364Z,1.20
2023-03-29T03:55:24.737Z,1.27
2023-03-29T03:57:51.954Z,1.33
2023-03-29T04:00:19.366Z,1.40
2023-03-29T04:02:51.631Z,1.50
2023-03-29T04:05:19.425Z,1.50
2023-03-29T04:07:47.229Z,1.73
2023-03-29T04:10:14.483Z,1.90
2023-03-29T04:12:41.775Z,2.00
2023-03-29T04:15:09.973Z,2.00
2023-03-29T04:17:37.819Z,1.80
2023-03-29T04:20:06.812Z,1.70
2023-03-29T04:22:33.976Z,1.93
2023-03-29T04:25:01.232Z,1.80
2023-03-29T04:27:28.419Z,1.80
2023-03-29T04:29:55.676Z,1.70
2023-03-29T04:32:22.900Z,4.63
2023-03-29T04:34:50.199Z,2.23
2023-03-29T04:37:17.559Z,1.63
2023-03-29T04:39:44.789Z,1.60
2023-03-29T04:42:11.999Z,1.30
2023-03-29T04:44:39.272Z,1.23
2023-03-29T04:47:07.519Z,1.50
2023-03-29T04:49:34.757Z,1.30
2023-03-29T04:52:01.940Z,1.60
2023-03-29T04:54:29.195Z,1.70
2023-03-29T04:56:56.495Z,1.50
2023-03-29T04:59:23.738Z,1.40
2023-03-29T05:01:51.051Z,1.50
2023-03-29T05:04:18.294Z,1.50
2023-03-29T05:06:45.565Z,1.40
2023-03-29T05:09:12.893Z,1.03
2023-03-29T05:11:40.084Z,1.40
2023-03-29T05:14:07.578Z,1.37
2023-03-29T05:16:35.298Z,1.27
2023-03-29T05:19:03.019Z,1.43
2023-03-29T05:21:30.285Z,1.50
2023-03-29T05:23:57.503Z,1.20
2023-03-29T05:26:24.987Z,1.40
2023-03-29T05:28:52.268Z,2.13
2023-03-29T05:31:19.924Z,1.90
2023-03-29T05:33:51.428Z,1.50
2023-03-29T05:36:19.577Z,1.47
2023-03-29T05:38:46.814Z,1.80
2023-03-29T05:41:15.581Z,2.17
2023-03-29T05:43:42.781Z,2.20
2023-03-29T05:46:10.083Z,2.50
2023-03-29T05:48:37.358Z,3.00
2023-03-29T05:51:05.344Z,2.30
2023-03-29T05:53:32.558Z,2.90
2023-03-29T05:55:59.810Z,2.80
2023-03-29T05:58:27.441Z,1.83
2023-03-29T06:00:55.270Z,2.33
2023-03-29T06:03:25.010Z,2.53
2023-03-29T06:06:08.967Z,2.60
2023-03-29T06:08:37.451Z,2.40
2023-03-29T06:11:07.249Z,2.20
2023-03-29T06:13:34.897Z,4.73
2023-03-29T06:16:02.127Z,1.80
2023-03-29T06:18:29.358Z,1.40
2023-03-29T06:20:56.633Z,2.33
2023-03-29T06:23:24.128Z,1.83
2023-03-29T06:25:51.643Z,2.47
2023-03-29T06:28:19.886Z,7.47
2023-03-29T06:30:48.106Z,2.70
2023-03-29T06:33:16.064Z,1.90
2023-03-29T06:35:47.214Z,1.97
2023-03-29T06:38:14.447Z,1.70
2023-03-29T06:40:42.189Z,1.90
2023-03-29T06:43:09.379Z,1.67
2023-03-29T06:45:38.896Z,1.73
2023-03-29T06:48:08.079Z,1.63
2023-03-29T06:50:36.081Z,2.07
2023-03-29T06:53:04.538Z,1.50
2023-03-29T06:55:31.783Z,1.80
2023-03-29T06:58:00.938Z,1.90
2023-03-29T07:00:30.329Z,1.70
2023-03-29T07:02:58.740Z,1.37
2023-03-29T07:05:29.331Z,1.57
2023-03-29T07:07:56.567Z,1.47
2023-03-29T07:10:30.629Z,1.50
2023-03-29T07:12:59.021Z,1.40
2023-03-29T07:15:26.885Z,1.50
2023-03-29T07:17:54.975Z,1.90
2023-03-29T07:20:22.290Z,1.70
2023-03-29T07:22:50.707Z,1.70
2023-03-29T07:25:20.299Z,1.60
2023-03-29T07:27:48.420Z,1.60
2023-03-29T07:30:20.373Z,1.50
2023-03-29T07:32:47.855Z,1.60
2023-03-29T07:35:15.857Z,1.70
2023-03-29T07:37:44.084Z,1.47
2023-03-29T07:40:15.216Z,1.67
2023-03-29T07:42:44.875Z,3.10
2023-03-29T07:45:14.329Z,1.77
2023-03-29T07:47:41.876Z,1.87
2023-03-29T07:50:10.555Z,1.80
2023-03-29T07:52:38.551Z,1.93
2023-03-29T07:55:11.218Z,2.00
2023-03-29T07:57:38.955Z,1.80
2023-03-29T08:00:08.194Z,1.87
2023-03-29T08:02:35.396Z,2.50
2023-03-29T08:05:02.628Z,2.20
2023-03-29T08:07:29.929Z,1.70
2023-03-29T08:09:57.586Z,2.00
2023-03-29T08:12:25.128Z,2.00
2023-03-29T08:14:52.476Z,1.80
2023-03-29T08:17:19.619Z,2.47
2023-03-29T08:19:50.969Z,2.83
2023-03-29T08:22:18.763Z,2.20
2023-03-29T08:24:45.968Z,2.60
2023-03-29T08:27:13.192Z,2.67
2023-03-29T08:29:40.380Z,2.90
2023-03-29T08:32:07.582Z,2.50
2023-03-29T08:34:34.855Z,2.53
2023-03-29T08:37:03.216Z,2.73
2023-03-29T08:39:31.045Z,2.87
2023-03-29T08:42:45.456Z,3.50
2023-03-29T08:45:27.677Z,3.13
2023-03-29T08:48:05.087Z,2.80
2023-03-29T08:50:47.309Z,2.87
2023-03-29T08:53:29.784Z,2.83
2023-03-29T08:56:02.674Z,3.20
2023-03-29T08:58:34.654Z,2.50
2023-03-29T09:01:07.201Z,3.00
2023-03-29T09:03:56.074Z,2.73
2023-03-29T09:06:23.468Z,2.67
2023-03-29T09:08:53.262Z,3.13
2023-03-29T09:12:06.553Z,2.80
2023-03-29T09:15:14.001Z,2.80
2023-03-29T09:18:00.987Z,3.07
2023-03-29T09:20:58.983Z,3.60
2023-03-29T09:24:02.397Z,3.10
2023-03-29T09:26:51.895Z,3.50
2023-03-29T09:30:19.052Z,2.93
2023-03-29T09:33:12.643Z,2.83
2023-03-29T09:35:59.516Z,3.10
2023-03-29T09:38:30.716Z,2.80
2023-03-29T09:41:12.809Z,2.53
2023-03-29T09:43:44.320Z,3.00
2023-03-29T09:46:28.456Z,2.40
2023-03-29T09:48:57.062Z,2.57
2023-03-29T09:51:29.972Z,2.50
2023-03-29T09:53:58.056Z,2.60
2023-03-29T09:56:25.338Z,2.70
2023-03-29T09:58:52.699Z,2.70
2023-03-29T10:01:20.113Z,3.03
2023-03-29T10:03:54.112Z,2.87
2023-03-29T10:06:24.691Z,2.37
2023-03-29T10:08:55.466Z,2.43
2023-03-29T10:11:35.244Z,2.27
2023-03-29T10:14:14.516Z,2.40
2023-03-29T10:16:47.844Z,2.83
2023-03-29T10:19:28.437Z,2.23
2023-03-29T10:21:58.970Z,2.40
2023-03-29T10:24:27.854Z,2.23
2023-03-29T10:27:01.301Z,2.63
2023-03-29T10:29:38.814Z,2.27
2023-03-29T10:32:33.781Z,2.70
2023-03-29T10:35:30.431Z,2.23
2023-03-29T10:38:00.201Z,2.37
2023-03-29T10:40:35.032Z,3.63
2023-03-29T10:43:26.872Z,3.10
2023-03-29T10:46:12.374Z,2.30
2023-03-29T10:48:47.507Z,2.40
2023-03-29T10:51:18.645Z,2.47
2023-03-29T10:53:46.884Z,2.00
2023-03-29T10:56:38.453Z,2.10
2023-03-29T10:59:29.434Z,2.40
2023-03-29T11:02:14.906Z,1.90
2023-03-29T11:04:49.889Z,1.93
2023-03-29T11:07:29.632Z,4.30
2023-03-29T11:10:50.744Z,3.87
2023-03-29T11:13:24.127Z,3.20
2023-03-29T11:16:15.948Z,3.17
2023-03-29T11:19:01.107Z,2.93
2023-03-29T11:21:34.310Z,3.20
2023-03-29T11:24:38.262Z,1.90
2023-03-29T11:27:39.957Z,2.60
2023-03-29T11:30:38.107Z,2.10
2023-03-29T11:33:16.751Z,2.42
2023-03-29T11:36:11.942Z,1.80
2023-03-29T11:39:25.765Z,9.25
2023-03-29T11:42:03.848Z,2.13
2023-03-29T11:44:31.802Z,3.22
2023-03-29T11:47:37.620Z,2.60
2023-03-29T11:50:42.908Z,2.55
2023-03-29T11:53:25.214Z,2.60
2023-03-29T11:55:55.483Z,3.50
2023-03-29T11:58:38.888Z,2.28
2023-03-29T12:01:33.474Z,1.77
2023-03-29T12:04:10.617Z,1.85
2023-03-29T12:06:45.805Z,2.50
2023-03-29T12:09:39.913Z,2.20
2023-03-29T12:12:22.838Z,2.30
2023-03-29T12:15:21.558Z,2.20
2023-03-29T12:18:15.959Z,2.33
2023-03-29T12:20:49.737Z,2.10
2023-03-29T12:23:18.411Z,1.70
2023-03-29T12:26:20.388Z,2.40
2023-03-29T12:29:36.126Z,2.13
2023-03-29T12:32:32.720Z,1.90
2023-03-29T12:35:35.589Z,1.83
2023-03-29T12:38:41.034Z,1.80
2023-03-29T12:41:20.757Z,2.10
2023-03-29T12:43:49.174Z,1.93
2023-03-29T12:46:31.853Z,2.30
2023-03-29T12:49:11.138Z,2.10
2023-03-29T12:51:42.822Z,2.10
2023-03-29T12:54:20.301Z,2.30
2023-03-29T12:56:55.068Z,2.23
2023-03-29T12:59:48.800Z,2.60
2023-03-29T13:02:16.096Z,2.27
2023-03-29T13:04:43.256Z,2.30
2023-03-29T13:07:33.429Z,2.47
2023-03-29T13:10:10.467Z,2.27
2023-03-29T13:12:48.001Z,2.30
2023-03-29T13:15:15.088Z,2.50
2023-03-29T13:18:00.140Z,2.10
2023-03-29T13:20:42.517Z,2.23
2023-03-29T13:23:53.450Z,2.20
2023-03-29T13:26:46.738Z,2.00
2023-03-29T13:30:10.660Z,2.10
2023-03-29T13:33:03.538Z,1.70
2023-03-29T13:35:36.312Z,1.80
2023-03-29T13:38:22.617Z,1.63
2023-03-29T13:40:52.792Z,1.73
2023-03-29T13:43:20.155Z,2.53
2023-03-29T13:45:59.195Z,1.80
2023-03-29T13:48:29.181Z,1.90
2023-03-29T13:50:58.838Z,2.10
2023-03-29T13:53:25.933Z,1.73
2023-03-29T13:55:57.981Z,1.77
2023-03-29T13:58:57.651Z,1.80
2023-03-29T14:01:52.760Z,2.50
2023-03-29T14:04:27.806Z,1.80
2023-03-29T14:06:58.018Z,1.90
2023-03-29T14:09:34.645Z,2.10
2023-03-29T14:12:02.642Z,2.87
2023-03-29T14:14:32.087Z,2.50
2023-03-29T14:17:02.168Z,1.87
2023-03-29T14:19:35.097Z,2.37
2023-03-29T14:22:09.263Z,1.80
2023-03-29T14:24:46.087Z,2.00
2023-03-29T14:27:13.662Z,2.30
2023-03-29T14:29:40.911Z,2.33
2023-03-29T14:32:13.534Z,2.23
2023-03-29T14:34:41.069Z,2.60
2023-03-29T14:37:13.970Z,2.37
2023-03-29T14:39:41.380Z,2.20
2023-03-29T14:42:21.387Z,2.10
2023-03-29T14:44:50.908Z,3.13
2023-03-29T14:47:31.077Z,2.00
2023-03-29T14:50:00.143Z,2.10
2023-03-29T14:52:30.808Z,1.90
2023-03-29T14:55:02.113Z,2.10
2023-03-29T14:57:36.300Z,2.17
2023-03-29T15:00:41.228Z,2.20
2023-03-29T15:03:15.504Z,2.50
2023-03-29T15:05:51.312Z,2.93
2023-03-29T15:08:33.528Z,5.00
2023-03-29T15:11:02.062Z,2.90
2023-03-29T15:13:30.751Z,2.30
2023-03-29T15:16:04.458Z,2.50
2023-03-29T15:18:38.290Z,2.20
2023-03-29T15:21:07.905Z,2.73
2023-03-29T15:23:54.822Z,2.30
2023-03-29T15:26:32.229Z,2.07
2023-03-29T15:29:16.715Z,3.20
2023-03-29T15:31:56.371Z,2.63
2023-03-29T15:34:29.771Z,2.60
2023-03-29T15:36:59.692Z,2.30
2023-03-29T15:39:29.062Z,2.97
2023-03-29T15:41:57.966Z,2.57
2023-03-29T15:44:33.476Z,2.67
2023-03-29T15:47:00.988Z,3.00
2023-03-29T15:49:28.207Z,2.53
2023-03-29T15:51:55.562Z,2.67
2023-03-29T15:54:23.453Z,2.90
2023-03-29T15:57:01.377Z,3.10
2023-03-29T15:59:30.248Z,2.60
2023-03-29T16:01:58.564Z,2.40
2023-03-29T16:04:26.297Z,2.43
2023-03-29T16:06:56.018Z,2.00
2023-03-29T16:09:24.398Z,2.10
2023-03-29T16:11:51.595Z,2.40
2023-03-29T16:14:28.506Z,2.00
2023-03-29T16:16:57.408Z,2.03
2023-03-29T16:19:26.631Z,2.30
2023-03-29T16:21:54.772Z,4.50
2023-03-29T16:24:27.574Z,4.50
2023-03-29T16:26:56.519Z,3.13
2023-03-29T16:29:25.190Z,2.60
2023-03-29T16:31:53.738Z,2.80
2023-03-29T16:34:22.799Z,2.50
2023-03-29T16:36:51.042Z,2.63
2023-03-29T16:39:18.327Z,2.50
2023-03-29T16:41:46.209Z,2.90
2023-03-29T16:44:22.953Z,2.97
2023-03-29T16:46:54.231Z,2.80
2023-03-29T16:49:21.903Z,2.73
2023-03-29T16:51:49.060Z,2.70
2023-03-29T16:54:17.737Z,1.90
2023-03-29T16:56:45.269Z,2.37
2023-03-29T16:59:13.157Z,3.60
2023-03-29T17:01:40.439Z,2.90
2023-03-29T17:04:08.846Z,2.40
2023-03-29T17:06:36.312Z,2.30
2023-03-29T17:09:04.578Z,2.00
2023-03-29T17:11:31.872Z,2.13
2023-03-29T17:13:59.469Z,2.97
2023-03-29T17:16:26.764Z,4.30
2023-03-29T17:18:54.053Z,2.90
2023-03-29T17:21:21.196Z,2.20
2023-03-29T17:23:48.392Z,1.63
2023-03-29T17:26:15.797Z,1.73
2023-03-29T17:28:42.943Z,1.30
2023-03-29T17:31:10.144Z,1.40
2023-03-29T17:33:37.881Z,2.10
2023-03-29T17:36:06.728Z,3.10
2023-03-29T17:38:34.553Z,1.60
2023-03-29T17:41:01.807Z,1.50
2023-03-29T17:43:28.963Z,1.63
2023-03-29T17:45:56.709Z,2.20
2023-03-29T17:48:24.968Z,2.00
2023-03-29T17:50:54.680Z,1.30
2023-03-29T17:53:22.046Z,2.30
2023-03-29T17:55:49.252Z,2.40
2023-03-29T17:58:16.565Z,1.30
2023-03-29T18:00:43.906Z,1.33
2023-03-29T18:03:11.790Z,1.20
2023-03-29T18:05:39.082Z,1.83
2023-03-29T18:08:06.526Z,1.80
2023-03-29T18:10:33.782Z,3.40
2023-03-29T18:13:01.017Z,1.80
2023-03-29T18:15:28.359Z,1.50
2023-03-29T18:17:55.495Z,1.80
2023-03-29T18:20:23.427Z,1.77
2023-03-29T18:22:50.603Z,1.40
2023-03-29T18:25:17.932Z,1.50
2023-03-29T18:27:45.503Z,4.50
2023-03-29T18:30:13.007Z,2.50
2023-03-29T18:32:40.212Z,2.33
2023-03-29T18:35:08.412Z,1.70
2023-03-29T18:37:35.636Z,3.07
2023-03-29T18:40:02.836Z,3.53
2023-03-29T18:42:30.087Z,3.93
2023-03-29T18:44:57.273Z,4.30
2023-03-29T18:47:24.519Z,3.87
2023-03-29T18:49:51.711Z,3.80
2023-03-29T18:52:19.062Z,5.67
2023-03-29T18:54:46.283Z,4.33
2023-03-29T18:57:13.612Z,4.60
2023-03-29T18:59:40.840Z,6.00
2023-03-29T19:02:08.335Z,6.80
2023-03-29T19:04:35.785Z,5.23
2023-03-29T19:07:03.246Z,5.70
2023-03-29T19:09:30.560Z,6.37
2023-03-29T19:11:57.911Z,6.20
2023-03-29T19:14:25.583Z,6.23
2023-03-29T19:16:53.349Z,5.97
2023-03-29T19:19:23.287Z,6.30
2023-03-29T19:21:50.823Z,6.53
2023-03-29T19:24:18.202Z,5.57
2023-03-29T19:26:45.733Z,5.63
2023-03-29T19:29:13.122Z,5.87
2023-03-29T19:31:40.398Z,5.43
2023-03-29T19:34:08.673Z,5.47
2023-03-29T19:36:36.029Z,5.40
2023-03-29T19:39:04.511Z,5.63
2023-03-29T19:41:32.120Z,7.67
2023-03-29T19:43:59.641Z,7.83
2023-03-29T19:46:27.577Z,6.03
2023-03-29T19:48:55.816Z,6.17
2023-03-29T19:51:23.589Z,6.23
2023-03-29T19:53:51.223Z,6.07
2023-03-29T19:56:18.817Z,6.20
2023-03-29T19:58:46.259Z,6.20
2023-03-29T20:01:13.482Z,6.53
2023-03-29T20:03:43.510Z,6.70
2023-03-29T20:06:11.114Z,7.13
2023-03-29T20:08:38.306Z,7.23
2023-03-29T20:11:07.015Z,7.33
2023-03-29T20:13:38.783Z,7.63
2023-03-29T20:16:16.406Z,7.60
2023-03-29T20:18:45.607Z,7.57
2023-03-29T20:21:14.766Z,7.93
2023-03-29T20:23:42.206Z,7.90
2023-03-29T20:26:09.732Z,8.17
2023-03-29T20:28:37.285Z,8.07
2023-03-29T20:31:07.868Z,8.63
2023-03-29T20:33:35.939Z,8.03
2023-03-29T20:36:03.520Z,7.80
2023-03-29T20:38:30.980Z,7.93
2023-03-29T20:40:58.765Z,8.10
2023-03-29T20:43:26.110Z,8.57
2023-03-29T20:45:54.294Z,7.97
2023-03-29T20:48:23.589Z,8.27
2023-03-29T20:50:51.964Z,8.70
2023-03-29T20:53:19.353Z,8.20
2023-03-29T20:55:46.509Z,9.00
2023-03-29T20:58:13.890Z,8.93
2023-03-29T21:00:41.092Z,8.90
2023-03-29T21:03:08.618Z,9.30
2023-03-29T21:05:36.019Z,10.03
2023-03-29T21:08:03.677Z,11.60
2023-03-29T21:10:31.164Z,11.83
2023-03-29T21:12:58.349Z,11.37
2023-03-29T21:15:27.057Z,13.77
2023-03-29T21:17:54.287Z,11.27
2023-03-29T21:20:22.274Z,14.17
2023-03-29T21:22:49.464Z,8.80
2023-03-29T21:25:16.983Z,10.27
2023-03-29T21:27:44.273Z,9.03
2023-03-29T21:30:12.384Z,9.93
2023-03-29T21:32:39.861Z,9.50
2023-03-29T21:35:08.081Z,9.27
2023-03-29T21:37:35.278Z,9.53
2023-03-29T21:40:03.099Z,9.40
2023-03-29T21:42:30.245Z,9.60
2023-03-29T21:44:57.354Z,9.40
2023-03-29T21:47:24.834Z,10.40
2023-03-29T21:49:52.057Z,10.57
2023-03-29T21:52:19.218Z,10.57
2023-03-29T21:54:46.580Z,9.20
2023-03-29T21:57:13.794Z,10.17
2023-03-29T21:59:41.004Z,9.17
2023-03-29T22:02:08.265Z,7.53
2023-03-29T22:04:37.479Z,8.83
2023-03-29T22:07:06.144Z,8.10
2023-03-29T22:09:34.865Z,9.73
2023-03-29T22:12:03.973Z,10.00
2023-03-29T22:14:33.303Z,10.40
2023-03-29T22:17:00.914Z,10.37
2023-03-29T22:19:28.319Z,8.93
2023-03-29T22:21:55.476Z,8.20
2023-03-29T22:24:22.807Z,7.63
2023-03-29T22:26:49.940Z,9.03
2023-03-29T22:29:17.149Z,9.33
2023-03-29T22:31:44.328Z,9.93
2023-03-29T22:34:11.867Z,9.00
2023-03-29T22:36:39.186Z,8.50
2023-03-29T22:39:06.613Z,8.07
2023-03-29T22:41:33.861Z,8.83
2023-03-29T22:44:01.236Z,8.33
2023-03-29T22:46:28.541Z,8.03
2023-03-29T22:48:55.933Z,7.07
2023-03-29T22:51:23.613Z,7.20
2023-03-29T22:53:50.854Z,7.23
2023-03-29T22:56:18.324Z,7.00
2023-03-29T22:58:46.003Z,7.17
2023-03-29T23:01:13.514Z,7.30
2023-03-29T23:03:40.725Z,6.70
2023-03-29T23:06:08.122Z,6.57
2023-03-29T23:08:35.390Z,6.20
2023-03-29T23:11:04.354Z,6.57
2023-03-29T23:13:32.597Z,6.70
2023-03-29T23:16:02.136Z,6.50
2023-03-29T23:18:31.551Z,7.13
2023-03-29T23:20:59.123Z,8.20
2023-03-29T23:23:28.456Z,8.00
2023-03-29T23:25:56.171Z,9.03
2023-03-29T23:28:26.597Z,9.47
2023-03-29T23:31:05.142Z,7.93
2023-03-29T23:33:35.274Z,6.87
2023-03-29T23:36:06.248Z,8.47
2023-03-29T23:38:35.767Z,9.03
2023-03-29T23:41:07.294Z,9.40
2023-03-29T23:43:37.442Z,9.10
2023-03-29T23:46:14.520Z,7.37
2023-03-29T23:48:47.276Z,6.67
2023-03-29T23:51:15.430Z,6.80
2023-03-29T23:53:42.800Z,6.67
2023-03-29T23:56:10.121Z,6.70
2023-03-29T23:58:38.296Z,6.40
